• Join FlightAware (Why Join?)
  • Login
  • US Flag 
07:35AM EDT


 

Airport Tracker/Info


-or-


 

Live Flight TrackerFlight Track Log ✈ KAP17 ✈ 14-May-2013 ✈ KLEB - KBOS

Flight Track Log - Related Links

Times and Time Zones

All times are in EDT time to prevent confusion due to time zone crossing. See the KAP17 flight status page for this flight to view local times or setup timezone preferences in your user account.

Time Position Orientation Groundspeed Altitude Reporting Facility
EDT Latitude Longitude Course Direction KTS MPH feet Rate Location/Type
06:26AM 43.6569 -72.2333 144° Southeast 155 178 4,100  Level Boston Center
06:27AM 43.5981 -72.0981 144° Southeast  Level FlightAware Approximate
06:27AM 43.6442 -72.1819 109° East 150 173 4,800  Level Boston Center
06:28AM 43.6211 -72.1333 123° Southeast 150 173 5,500 600 Climbing Boston Center
06:29AM 43.5878 -72.0875 135° Southeast 150 173 6,100 600 Climbing Boston Center
06:30AM 43.5542 -72.0447 137° Southeast 162 186 6,800 480 Climbing Boston Center
06:31AM 43.5186 -71.9964 135° Southeast 173 199 7,100 60 Climbing Boston Center
06:32AM 43.4808 -71.9450 135° Southeast 179 206 7,000  Descending Boston Center
06:33AM 43.4475 -71.8967 134° Southeast 184 212 7,100  Climbing Boston Center
06:34AM 43.4075 -71.8400 134° Southeast 190 219 7,100 -60 Level Boston Center
06:35AM 43.3761 -71.7917 132° Southeast 190 219 7,000 -60 Descending Boston Center
06:36AM 43.3339 -71.7378 137° Southeast 190 219 7,000 -60 Level Boston Center
06:37AM 43.3025 -71.6897 132° Southeast 190 219 6,900  Descending Boston Center
06:38AM 43.2625 -71.6361 136° Southeast 195 224 7,000 60 Climbing Boston Center
06:38AM 43.2500 -71.6167 131° Southeast 184 212 7,000  Level KA90
06:39AM 43.2167 -71.5667 132° Southeast 183 211 7,000  Level KA90
06:40AM 43.1833 -71.5333 144° Southeast 183 211 7,000 -60 Level KA90
06:41AM 43.1333 -71.5000 154° Southeast 183 211 6,900 -240 Descending KA90
06:42AM 43.1006 -71.4647 142° Southeast 181 208 6,600 -420 Descending Boston Center
06:43AM 43.0628 -71.4256 143° Southeast 186 214 6,200 -300 Descending Boston Center
06:44AM 43.0164 -71.3753 142° Southeast 192 221 6,000 -180 Descending Boston Center
06:44AM 43.0000 -71.3667 159° South 185 213 6,000  Level KA90
06:45AM 42.9667 -71.3167 132° Southeast 180 207 6,000  Level KA90
06:46AM 42.9333 -71.2833 144° Southeast 178 205 6,000  Level KA90
06:47AM 42.8833 -71.2333 144° Southeast 177 204 6,000  Level KA90
06:48AM 42.8500 -71.2000 144° Southeast 176 203 6,000  Level KA90
06:49AM 42.8167 -71.1667 144° Southeast 175 201 6,100  Climbing KA90
06:50AM 42.7667 -71.1167 144° Southeast 173 199 6,100  Level KA90
06:51AM 42.7333 -71.0833 144° Southeast 177 204 6,100 -60 Level KA90
06:52AM 42.6833 -71.0500 154° Southeast 175 201 6,000 -360 Descending KA90
06:53AM 42.6500 -71.0167 144° Southeast 185 213 5,500 -540 Descending KA90
06:54AM 42.6000 -70.9833 154° Southeast 191 220 5,000 -480 Descending KA90
06:55AM 42.5500 -70.9333 144° Southeast 191 220 4,500 -480 Descending KA90
06:56AM 42.5167 -70.9000 144° Southeast 191 220 4,000 -660 Descending KA90
06:57AM 42.4500 -70.9000 180° South 189 217 3,200 -960 Descending KA90
06:58AM 42.4167 -70.9167 200° South 179 206 2,200 -1,020 Descending KA90
06:59AM 42.3667 -70.9333 194° South 146 168 1,300 -840 Descending KA90
07:00AM 42.3667 -70.9667 270° West 117 135 600 -780 Descending KA90
07:02AM 42.3630 -71.0064 236° Southwest  Level Estimated
07:09AM 42.3630 -71.0064 172° South  Level Estimated